createdAt,value
2023-12-09T00:02:12.842Z,94650.41
2023-12-09T00:04:41.178Z,94648.88
2023-12-09T00:07:10.524Z,94645.16
2023-12-09T00:09:37.913Z,94647.81
2023-12-09T00:12:05.719Z,94643.53
2023-12-09T00:14:32.651Z,94651.19
2023-12-09T00:16:59.924Z,94648.00
2023-12-09T00:19:26.931Z,94650.41
2023-12-09T00:21:53.978Z,94656.25
2023-12-09T00:24:21.133Z,94648.28
2023-12-09T00:26:48.246Z,94646.22
2023-12-09T00:29:15.321Z,94641.69
2023-12-09T00:31:43.275Z,94645.16
2023-12-09T00:34:10.617Z,94637.97
2023-12-09T00:36:37.721Z,94645.94
2023-12-09T00:39:04.890Z,94647.56
2023-12-09T00:41:31.939Z,94644.81
2023-12-09T00:43:58.850Z,94647.75
2023-12-09T00:46:25.863Z,94639.22
2023-12-09T00:48:52.882Z,94642.53
2023-12-09T00:51:20.675Z,94649.66
2023-12-09T00:53:47.635Z,94649.56
2023-12-09T00:56:14.830Z,94641.84
2023-12-09T00:58:59.816Z,94647.38
2023-12-09T01:01:26.951Z,94643.81
2023-12-09T01:03:54.120Z,94646.91
2023-12-09T01:06:21.169Z,94643.97
2023-12-09T01:08:48.164Z,94651.69
2023-12-09T01:11:15.137Z,94653.75
2023-12-09T01:13:42.676Z,94654.09
2023-12-09T01:16:10.469Z,94654.09
2023-12-09T01:18:37.385Z,94656.56
2023-12-09T01:21:04.861Z,94652.88
2023-12-09T01:23:31.855Z,94654.47
2023-12-09T01:25:58.911Z,94651.78
2023-12-09T01:28:25.879Z,94656.91
2023-12-09T01:30:52.799Z,94657.91
2023-12-09T01:33:19.831Z,94655.41
2023-12-09T01:35:47.059Z,94647.69
2023-12-09T01:38:13.997Z,94655.09
2023-12-09T01:40:41.446Z,94651.41
2023-12-09T01:43:11.909Z,94648.19
2023-12-09T01:45:39.122Z,94655.09
2023-12-09T01:48:06.728Z,94647.19
2023-12-09T01:50:33.925Z,94646.66
2023-12-09T01:53:01.301Z,94648.19
2023-12-09T01:55:30.127Z,94645.28
2023-12-09T01:57:57.247Z,94646.66
2023-12-09T02:00:24.755Z,94632.06
2023-12-09T02:02:52.205Z,94639.03
2023-12-09T02:05:19.539Z,94634.50
2023-12-09T02:07:46.492Z,94636.50
2023-12-09T02:10:13.525Z,94633.47
2023-12-09T02:13:24.457Z,94630.00
2023-12-09T02:16:01.890Z,94633.88
2023-12-09T02:18:31.536Z,94644.53
2023-12-09T02:20:58.776Z,94640.28
2023-12-09T02:23:25.703Z,94638.63
2023-12-09T02:25:57.774Z,94641.84
2023-12-09T02:28:28.137Z,94635.19
2023-12-09T02:31:10.618Z,94641.59
2023-12-09T02:33:38.616Z,94626.47
2023-12-09T02:36:09.152Z,94618.44
2023-12-09T02:38:38.977Z,94628.28
2023-12-09T02:41:08.283Z,94616.06
2023-12-09T02:43:35.287Z,94627.22
2023-12-09T02:46:02.478Z,94625.06
2023-12-09T02:48:29.631Z,94620.56
2023-12-09T02:50:56.914Z,94626.38
2023-12-09T02:53:23.902Z,94623.66
2023-12-09T02:55:50.790Z,94621.47
2023-12-09T02:58:17.766Z,94620.91
2023-12-09T03:00:45.309Z,94628.31
2023-12-09T03:03:12.519Z,94621.91
2023-12-09T03:05:39.554Z,94619.25
2023-12-09T03:08:06.549Z,94619.50
2023-12-09T03:10:33.559Z,94624.81
2023-12-09T03:13:01.242Z,94621.84
2023-12-09T03:15:28.563Z,94616.00
2023-12-09T03:17:55.729Z,94607.72
2023-12-09T03:20:22.899Z,94622.28
2023-12-09T03:22:49.863Z,94625.47
2023-12-09T03:25:16.843Z,94626.78
2023-12-09T03:27:43.737Z,94623.00
2023-12-09T03:30:11.293Z,94623.25
2023-12-09T03:32:40.164Z,94632.25
2023-12-09T03:35:08.656Z,94636.28
2023-12-09T03:37:35.615Z,94627.44
2023-12-09T03:40:04.387Z,94622.16
2023-12-09T03:42:32.210Z,94622.16
2023-12-09T03:44:59.184Z,94613.69
2023-12-09T03:47:29.485Z,94623.75
2023-12-09T03:49:57.035Z,94626.97
2023-12-09T03:52:25.095Z,94632.75
2023-12-09T03:54:52.146Z,94634.06
2023-12-09T03:57:19.575Z,94641.44
2023-12-09T03:59:46.576Z,94641.66
2023-12-09T04:02:13.479Z,94641.34
2023-12-09T04:04:41.522Z,94644.56
2023-12-09T04:07:09.439Z,94641.66
2023-12-09T04:09:36.497Z,94645.97
2023-12-09T04:12:03.908Z,94648.25
2023-12-09T04:14:30.969Z,94649.31
2023-12-09T04:16:58.254Z,94648.59
2023-12-09T04:19:25.322Z,94646.41
2023-12-09T04:21:53.194Z,94647.88
2023-12-09T04:24:20.454Z,94648.88
2023-12-09T04:26:47.604Z,94655.78
2023-12-09T04:29:14.544Z,94649.31
2023-12-09T04:31:44.258Z,94646.78
2023-12-09T04:34:11.694Z,94652.31
2023-12-09T04:36:39.003Z,94649.44
2023-12-09T04:39:07.268Z,94659.78
2023-12-09T04:41:34.451Z,94655.84
2023-12-09T04:44:01.305Z,94654.31
2023-12-09T04:46:29.760Z,94654.94
2023-12-09T04:48:58.002Z,94658.47
2023-12-09T04:51:25.294Z,94663.09
2023-12-09T04:53:52.318Z,94664.69
2023-12-09T04:56:20.228Z,94664.69
2023-12-09T04:58:47.278Z,94668.25
2023-12-09T05:01:14.275Z,94673.06
2023-12-09T05:03:41.352Z,94675.47
2023-12-09T05:06:09.993Z,94674.97
2023-12-09T05:08:37.009Z,94678.19
2023-12-09T05:11:04.069Z,94681.38
2023-12-09T05:13:30.967Z,94681.38
2023-12-09T05:15:58.057Z,94675.34
2023-12-09T05:18:25.119Z,94679.44
2023-12-09T05:20:52.652Z,94686.84
2023-12-09T05:23:19.807Z,94695.34
2023-12-09T05:25:47.412Z,94695.06
2023-12-09T05:28:14.370Z,94694.56
2023-12-09T05:30:43.226Z,94698.63
2023-12-09T05:33:11.084Z,94697.06
2023-12-09T05:35:38.110Z,94697.06
2023-12-09T05:38:05.174Z,94701.28
2023-12-09T05:40:35.782Z,94710.03
2023-12-09T05:43:03.196Z,94699.72
2023-12-09T05:45:30.297Z,94701.88
2023-12-09T05:47:58.083Z,94701.88
2023-12-09T05:50:25.264Z,94707.53
2023-12-09T05:52:52.184Z,94709.94
2023-12-09T05:55:19.137Z,94712.91
2023-12-09T05:57:46.064Z,94712.66
2023-12-09T06:00:13.849Z,94708.94
2023-12-09T06:02:42.443Z,94712.16
2023-12-09T06:05:10.436Z,94711.66
2023-12-09T06:07:37.426Z,94715.00
2023-12-09T06:10:06.625Z,94717.16
2023-12-09T06:12:33.959Z,94714.31
2023-12-09T06:15:01.560Z,94721.47
2023-12-09T06:17:28.709Z,94718.56
2023-12-09T06:19:55.879Z,94716.97
2023-12-09T06:22:22.950Z,94719.63
2023-12-09T06:24:50.021Z,94732.63
2023-12-09T06:27:17.382Z,94728.13
2023-12-09T06:29:47.172Z,94729.19
2023-12-09T06:32:14.615Z,94727.66
2023-12-09T06:34:41.994Z,94719.75
2023-12-09T06:37:09.650Z,94726.13
2023-12-09T06:39:36.757Z,94731.91
2023-12-09T06:42:04.304Z,94738.59
2023-12-09T06:44:31.591Z,94732.72
2023-12-09T06:46:58.510Z,94743.66
2023-12-09T06:49:25.637Z,94738.94
2023-12-09T06:51:52.877Z,94737.41
2023-12-09T06:54:22.414Z,94738.44
2023-12-09T06:56:49.455Z,94731.66
2023-12-09T06:59:18.969Z,94739.44
2023-12-09T07:01:46.036Z,94740.47
2023-12-09T07:04:17.830Z,94745.78
2023-12-09T07:06:44.879Z,94738.38
2023-12-09T07:09:12.182Z,94746.66
2023-12-09T07:11:39.302Z,94749.13
2023-12-09T07:14:06.564Z,94742.00
2023-12-09T07:16:34.589Z,94754.84
2023-12-09T07:19:02.927Z,94754.03
2023-12-09T07:21:30.825Z,94754.66
2023-12-09T07:23:58.652Z,94751.25
2023-12-09T07:26:25.961Z,94751.75
2023-12-09T07:28:55.350Z,94753.34
2023-12-09T07:31:23.443Z,94755.50
2023-12-09T07:33:52.419Z,94759.78
2023-12-09T07:36:19.643Z,94762.97
2023-12-09T07:38:46.872Z,94762.19
2023-12-09T07:41:13.952Z,94770.19
2023-12-09T07:43:41.400Z,94778.00
2023-12-09T07:46:08.380Z,94773.47
2023-12-09T07:48:35.596Z,94774.88
2023-12-09T07:51:02.746Z,94775.72
2023-12-09T07:53:30.281Z,94777.06
2023-12-09T07:55:58.767Z,94781.13
2023-12-09T07:58:25.715Z,94777.22
2023-12-09T08:00:53.209Z,94782.03
2023-12-09T08:03:20.963Z,94780.22
2023-12-09T08:05:48.184Z,94780.22
2023-12-09T08:08:15.261Z,94786.38
2023-12-09T08:10:42.734Z,94789.34
2023-12-09T08:13:10.352Z,94790.44
2023-12-09T08:15:37.537Z,94790.75
2023-12-09T08:18:05.219Z,94795.63
2023-12-09T08:20:32.281Z,94785.75
2023-12-09T08:22:59.558Z,94791.09
2023-12-09T08:25:26.487Z,94799.34
2023-12-09T08:27:53.393Z,94787.06
2023-12-09T08:30:20.437Z,94786.81
2023-12-09T08:32:47.450Z,94793.00
2023-12-09T08:35:14.548Z,94796.72
2023-12-09T08:37:41.631Z,94793.03
2023-12-09T08:40:13.557Z,94795.47
2023-12-09T08:42:42.876Z,94782.44
2023-12-09T08:45:11.894Z,94794.25
2023-12-09T08:47:42.701Z,94792.44
2023-12-09T08:50:21.925Z,94790.03
2023-12-09T08:52:55.238Z,94793.72
2023-12-09T08:55:22.894Z,94790.56
2023-12-09T08:57:50.582Z,94790.09
2023-12-09T09:00:22.123Z,94786.91
2023-12-09T09:02:50.007Z,94790.09
2023-12-09T09:05:17.161Z,94782.09
2023-12-09T09:07:47.210Z,94788.81
2023-12-09T09:10:14.987Z,94785.63
2023-12-09T09:12:42.289Z,94785.94
2023-12-09T09:15:10.581Z,94795.03
2023-12-09T09:17:37.995Z,94787.31
2023-12-09T09:20:06.987Z,94774.06
2023-12-09T09:22:35.188Z,94772.13
2023-12-09T09:25:03.027Z,94775.31
2023-12-09T09:27:30.203Z,94763.31
2023-12-09T09:29:57.389Z,94763.66
2023-12-09T09:32:24.856Z,94763.19
2023-12-09T09:34:52.118Z,94761.03
2023-12-09T09:37:19.824Z,94761.03
2023-12-09T09:39:47.084Z,94749.59
2023-12-09T09:42:44.146Z,94743.47
2023-12-09T09:45:32.135Z,94742.41
2023-12-09T09:48:06.061Z,94741.91
2023-12-09T09:50:41.706Z,94740.03
2023-12-09T09:53:10.461Z,94743.72
2023-12-09T09:55:42.826Z,94744.81
2023-12-09T09:58:11.924Z,94744.56
2023-12-09T10:00:40.219Z,94748.53
2023-12-09T10:03:08.025Z,94747.22
2023-12-09T10:05:35.106Z,94743.50
2023-12-09T10:08:02.511Z,94749.38
2023-12-09T10:10:31.529Z,94754.19
2023-12-09T10:12:58.694Z,94742.19
2023-12-09T10:15:25.941Z,94743.00
2023-12-09T10:17:53.390Z,94739.78
2023-12-09T10:20:20.548Z,94737.66
2023-12-09T10:22:48.309Z,94741.91
2023-12-09T10:25:22.618Z,94748.06
2023-12-09T10:27:50.094Z,94733.38
2023-12-09T10:30:19.798Z,94738.19
2023-12-09T10:32:48.631Z,94732.84
2023-12-09T10:35:18.186Z,94727.50
2023-12-09T10:37:45.375Z,94731.25
2023-12-09T10:40:13.263Z,94728.84
2023-12-09T10:42:42.072Z,94725.91
2023-12-09T10:45:09.646Z,94723.22
2023-12-09T10:47:36.918Z,94716.03
2023-12-09T10:50:05.100Z,94716.84
2023-12-09T10:52:34.230Z,94715.78
2023-12-09T10:55:03.015Z,94713.63
2023-12-09T10:57:34.008Z,94716.84
2023-12-09T11:00:02.850Z,94719.25
2023-12-09T11:02:31.228Z,94710.97
2023-12-09T11:04:58.908Z,94720.03
2023-12-09T11:07:27.189Z,94719.47
2023-12-09T11:09:55.873Z,94714.16
2023-12-09T11:12:29.984Z,94709.91
2023-12-09T11:15:09.164Z,94707.25
2023-12-09T11:17:38.653Z,94697.91
2023-12-09T11:20:21.066Z,94705.88
2023-12-09T11:22:48.624Z,94697.09
2023-12-09T11:25:27.138Z,94700.56
2023-12-09T11:27:54.979Z,94693.34
2023-12-09T11:30:43.380Z,94698.16
2023-12-09T11:33:11.243Z,94698.69
2023-12-09T11:35:39.000Z,94706.16
2023-12-09T11:38:08.910Z,94700.84
2023-12-09T11:40:36.102Z,94691.75
2023-12-09T11:43:04.903Z,94684.03
2023-12-09T11:45:32.097Z,94700.28
2023-12-09T11:48:00.862Z,94681.88
2023-12-09T11:50:29.047Z,94682.16
2023-12-09T11:52:56.677Z,94676.78
2023-12-09T11:55:23.821Z,94678.41
2023-12-09T11:57:51.068Z,94681.09
2023-12-09T12:00:18.583Z,94679.47
2023-12-09T12:02:45.635Z,94679.47
2023-12-09T12:05:13.215Z,94681.09
2023-12-09T12:07:40.778Z,94686.94
2023-12-09T12:10:09.240Z,94689.34
2023-12-09T12:12:37.535Z,94680.53
2023-12-09T12:15:06.436Z,94688.00
2023-12-09T12:17:41.335Z,94685.34
2023-12-09T12:20:11.849Z,94692.28
2023-12-09T12:22:40.793Z,94687.75
2023-12-09T12:25:09.849Z,94689.06
2023-12-09T12:27:37.949Z,94685.31
2023-12-09T12:30:07.783Z,94688.00
2023-12-09T12:32:39.573Z,94678.91
2023-12-09T12:35:07.399Z,94681.59
2023-12-09T12:37:34.861Z,94676.25
2023-12-09T12:40:02.199Z,94662.66
2023-12-09T12:42:30.738Z,94661.84
2023-12-09T12:44:58.172Z,94669.59
2023-12-09T12:47:25.203Z,94660.78
2023-12-09T12:49:52.536Z,94658.09
2023-12-09T12:52:19.566Z,94667.19
2023-12-09T12:54:46.664Z,94664.25
2023-12-09T12:57:14.006Z,94663.44
2023-12-09T12:59:41.189Z,94663.97
2023-12-09T13:02:08.192Z,94665.06
2023-12-09T13:04:35.238Z,94662.91
2023-12-09T13:07:02.521Z,94675.19
2023-12-09T13:09:29.587Z,94672.00
2023-12-09T13:11:56.622Z,94665.84
2023-12-09T13:14:23.687Z,94673.59
2023-12-09T13:16:50.759Z,94672.00
2023-12-09T13:19:17.931Z,94670.41
2023-12-09T13:21:53.340Z,94676.81
2023-12-09T13:24:21.098Z,94672.53
2023-12-09T13:26:48.351Z,94677.88
2023-12-09T13:29:15.464Z,94677.31
2023-12-09T13:31:42.513Z,94667.19
2023-12-09T13:34:09.655Z,94676.22
2023-12-09T13:36:41.039Z,94675.41
2023-12-09T13:39:13.039Z,94675.41
2023-12-09T13:41:41.327Z,94676.75
2023-12-09T13:44:08.493Z,94679.44
2023-12-09T13:46:35.633Z,94673.84
2023-12-09T13:49:02.916Z,94668.53
2023-12-09T13:51:30.194Z,94671.22
2023-12-09T13:53:58.733Z,94668.78
2023-12-09T13:56:25.857Z,94676.25
2023-12-09T13:58:52.959Z,94676.75
2023-12-09T14:01:20.285Z,94676.75
2023-12-09T14:03:47.427Z,94684.22
2023-12-09T14:06:14.608Z,94683.94
2023-12-09T14:08:42.587Z,94681.81
2023-12-09T14:11:10.602Z,94681.56
2023-12-09T14:13:37.596Z,94678.66
2023-12-09T14:16:05.262Z,94671.69
2023-12-09T14:18:32.500Z,94679.91
2023-12-09T14:20:59.784Z,94678.56
2023-12-09T14:23:29.192Z,94679.63
2023-12-09T14:25:56.256Z,94682.03
2023-12-09T14:28:23.411Z,94681.50
2023-12-09T14:30:50.528Z,94678.31
2023-12-09T14:33:17.771Z,94678.81
2023-12-09T14:35:44.934Z,94674.53
2023-12-09T14:38:12.125Z,94682.50
2023-12-09T14:40:39.505Z,94677.16
2023-12-09T14:43:11.832Z,94681.44
2023-12-09T14:45:39.172Z,94682.75
2023-12-09T14:48:08.278Z,94687.28
2023-12-09T14:50:36.352Z,94685.09
2023-12-09T14:53:03.572Z,94676.84
2023-12-09T14:55:30.774Z,94674.97
2023-12-09T14:57:57.841Z,94677.91
2023-12-09T15:00:25.074Z,94673.38
2023-12-09T15:02:52.446Z,94670.97
2023-12-09T15:05:19.565Z,94677.16
2023-12-09T15:07:47.028Z,94674.97
2023-12-09T15:10:14.646Z,94663.25
2023-12-09T15:12:41.694Z,94665.09
2023-12-09T15:15:09.881Z,94665.09
2023-12-09T15:17:38.531Z,94663.19
2023-12-09T15:20:10.426Z,94661.56
2023-12-09T15:22:38.237Z,94675.41
2023-12-09T15:25:05.947Z,94679.66
2023-12-09T15:27:33.367Z,94675.94
2023-12-09T15:30:00.501Z,94672.72
2023-12-09T15:32:28.213Z,94668.22
2023-12-09T15:34:55.598Z,94676.72
2023-12-09T15:37:22.840Z,94678.56
2023-12-09T15:39:50.070Z,94681.25
2023-12-09T15:42:17.675Z,94677.50
2023-12-09T15:44:44.742Z,94670.59
2023-12-09T15:47:13.071Z,94673.25
2023-12-09T15:49:41.383Z,94675.38
2023-12-09T15:52:08.489Z,94676.44
2023-12-09T15:54:35.668Z,94676.94
2023-12-09T15:57:03.787Z,94680.97
2023-12-09T15:59:31.325Z,94674.06
2023-12-09T16:01:58.374Z,94675.03
2023-12-09T16:04:26.450Z,94676.88
2023-12-09T16:06:53.498Z,94673.66
2023-12-09T16:09:20.562Z,94686.38
2023-12-09T16:11:49.005Z,94683.19
2023-12-09T16:14:16.097Z,94686.09
2023-12-09T16:16:45.072Z,94688.50
2023-12-09T16:19:12.565Z,94687.41
2023-12-09T16:21:40.063Z,94680.50
2023-12-09T16:24:07.637Z,94686.91
2023-12-09T16:26:35.143Z,94680.81
2023-12-09T16:29:02.324Z,94689.38
2023-12-09T16:31:29.376Z,94684.88
2023-12-09T16:33:56.691Z,94687.56
2023-12-09T16:36:24.082Z,94689.13
2023-12-09T16:38:51.232Z,94689.94
2023-12-09T16:41:18.595Z,94689.66
2023-12-09T16:43:45.911Z,94693.38
2023-12-09T16:46:13.693Z,94701.66
2023-12-09T16:48:41.381Z,94699.00
2023-12-09T16:51:09.195Z,94698.72
2023-12-09T16:53:36.236Z,94698.19
2023-12-09T16:56:03.297Z,94699.22
2023-12-09T16:58:30.491Z,94698.63
2023-12-09T17:00:57.591Z,94699.16
2023-12-09T17:03:25.131Z,94694.34
2023-12-09T17:05:53.371Z,94696.47
2023-12-09T17:08:20.606Z,94699.94
2023-12-09T17:10:47.959Z,94694.34
2023-12-09T17:13:15.026Z,94699.66
2023-12-09T17:15:42.175Z,94704.72
2023-12-09T17:18:09.699Z,94705.00
2023-12-09T17:20:36.808Z,94699.38
2023-12-09T17:23:04.004Z,94699.91
2023-12-09T17:25:31.383Z,94708.69
2023-12-09T17:27:58.433Z,94702.53
2023-12-09T17:30:25.944Z,94711.25
2023-12-09T17:32:53.165Z,94709.38
2023-12-09T17:35:20.604Z,94718.91
2023-12-09T17:37:47.765Z,94714.91
2023-12-09T17:40:16.098Z,94720.78
2023-12-09T17:42:43.236Z,94726.66
2023-12-09T17:45:10.901Z,94724.09
2023-12-09T17:47:38.088Z,94718.63
2023-12-09T17:50:06.092Z,94723.31
2023-12-09T17:52:35.556Z,94728.06
2023-12-09T17:55:05.319Z,94718.19
2023-12-09T17:57:32.928Z,94725.06
2023-12-09T18:00:00.192Z,94732.06
2023-12-09T18:02:27.607Z,94718.19
2023-12-09T18:04:55.001Z,94724.75
2023-12-09T18:07:22.094Z,94725.81
2023-12-09T18:09:50.294Z,94723.16
2023-12-09T18:12:17.399Z,94724.19
2023-12-09T18:14:44.694Z,94718.34
2023-12-09T18:17:12.036Z,94721.63
2023-12-09T18:19:39.113Z,94714.91
2023-12-09T18:22:06.540Z,94723.94
2023-12-09T18:24:33.782Z,94728.00
2023-12-09T18:27:01.603Z,94726.47
2023-12-09T18:29:29.182Z,94724.63
2023-12-09T18:31:56.282Z,94728.72
2023-12-09T18:34:23.469Z,94733.16
2023-12-09T18:36:50.762Z,94726.97
2023-12-09T18:39:21.012Z,94733.38
2023-12-09T18:41:48.183Z,94729.38
2023-12-09T18:44:15.265Z,94738.25
2023-12-09T18:46:42.360Z,94732.91
2023-12-09T18:49:10.243Z,94740.63
2023-12-09T18:51:37.688Z,94743.81
2023-12-09T18:54:05.525Z,94744.88
2023-12-09T18:56:36.508Z,94747.03
2023-12-09T18:59:04.102Z,94742.00
2023-12-09T19:01:31.613Z,94743.94
2023-12-09T19:04:01.748Z,94746.59
2023-12-09T19:06:31.286Z,94746.22
2023-12-09T19:08:59.737Z,94745.94
2023-12-09T19:11:26.875Z,94754.97
2023-12-09T19:13:53.904Z,94749.66
2023-12-09T19:16:21.048Z,94750.75
2023-12-09T19:18:48.716Z,94751.84
2023-12-09T19:21:15.966Z,94749.44
2023-12-09T19:23:43.087Z,94760.06
2023-12-09T19:26:10.484Z,94752.34
2023-12-09T19:28:38.036Z,94751.28
2023-12-09T19:31:05.507Z,94760.88
2023-12-09T19:33:32.993Z,94761.66
2023-12-09T19:36:00.357Z,94752.84
2023-12-09T19:38:27.671Z,94764.97
2023-12-09T19:40:54.679Z,94754.53
2023-12-09T19:43:22.232Z,94753.44
2023-12-09T19:45:49.446Z,94752.34
2023-12-09T19:48:17.548Z,94752.03
2023-12-09T19:50:45.799Z,94764.28
2023-12-09T19:53:13.055Z,94755.25
2023-12-09T19:55:40.108Z,94751.53
2023-12-09T19:58:08.765Z,94752.66
2023-12-09T20:00:35.973Z,94745.22
2023-12-09T20:03:03.281Z,94748.97
2023-12-09T20:05:30.268Z,94749.34
2023-12-09T20:07:57.538Z,94748.09
2023-12-09T20:10:24.626Z,94749.72
2023-12-09T20:12:52.132Z,94750.84
2023-12-09T20:15:19.316Z,94738.13
2023-12-09T20:17:47.024Z,94753.56
2023-12-09T20:20:14.172Z,94746.13
2023-12-09T20:22:41.276Z,94749.88
2023-12-09T20:25:08.846Z,94752.03
2023-12-09T20:27:36.440Z,94750.19
2023-12-09T20:30:03.936Z,94754.19
2023-12-09T20:32:31.202Z,94762.78
2023-12-09T20:34:58.761Z,94749.47
2023-12-09T20:37:25.797Z,94750.13
2023-12-09T20:39:58.410Z,94740.53
2023-12-09T20:42:25.635Z,94736.00
2023-12-09T20:44:53.457Z,94733.88
2023-12-09T20:47:20.438Z,94730.19
2023-12-09T20:49:47.684Z,94725.38
2023-12-09T20:52:14.708Z,94729.09
2023-12-09T20:54:47.920Z,94730.19
2023-12-09T20:57:15.272Z,94728.88
2023-12-09T20:59:45.425Z,94732.38
2023-12-09T21:02:12.485Z,94723.31
2023-12-09T21:04:44.939Z,94721.22
2023-12-09T21:07:12.366Z,94728.16
2023-12-09T21:09:41.036Z,94717.75
2023-12-09T21:12:09.056Z,94714.88
2023-12-09T21:14:36.128Z,94715.41
2023-12-09T21:17:04.065Z,94705.25
2023-12-09T21:19:35.369Z,94689.81
2023-12-09T21:22:04.155Z,94682.91
2023-12-09T21:24:31.366Z,94688.22
2023-12-09T21:26:58.400Z,94690.31
2023-12-09T21:29:25.358Z,94687.66
2023-12-09T21:31:52.408Z,94687.69
2023-12-09T21:34:19.616Z,94677.88
2023-12-09T21:36:46.959Z,94673.13
2023-12-09T21:39:14.370Z,94684.31
2023-12-09T21:41:41.395Z,94690.41
2023-12-09T21:44:09.321Z,94686.97
2023-12-09T21:46:36.336Z,94699.75
2023-12-09T21:49:03.558Z,94693.63
2023-12-09T21:51:30.667Z,94707.47
2023-12-09T21:53:57.640Z,94705.34
2023-12-09T21:56:26.107Z,94704.03
2023-12-09T21:58:53.810Z,94708.03
2023-12-09T22:01:21.621Z,94720.28
2023-12-09T22:03:49.977Z,94714.69
2023-12-09T22:06:17.303Z,94713.88
2023-12-09T22:08:44.757Z,94713.34
2023-12-09T22:11:12.821Z,94713.88
2023-12-09T22:13:40.882Z,94717.09
2023-12-09T22:16:08.589Z,94711.47
2023-12-09T22:18:35.825Z,94712.53
2023-12-09T22:21:03.204Z,94707.22
2023-12-09T22:23:30.263Z,94698.94
2023-12-09T22:25:57.361Z,94697.34
2023-12-09T22:28:24.463Z,94685.66
2023-12-09T22:30:51.518Z,94678.47
2023-12-09T22:33:18.931Z,94683.53
2023-12-09T22:35:46.755Z,94680.88
2023-12-09T22:38:13.939Z,94666.50
2023-12-09T22:40:41.289Z,94672.63
2023-12-09T22:43:08.457Z,94663.34
2023-12-09T22:45:35.674Z,94668.41
2023-12-09T22:48:03.701Z,94662.81
2023-12-09T22:50:32.249Z,94661.22
2023-12-09T22:53:00.297Z,94654.31
2023-12-09T22:55:30.198Z,94658.31
2023-12-09T22:57:57.371Z,94657.97
2023-12-09T23:00:34.104Z,94655.22
2023-12-09T23:03:04.382Z,94651.72
2023-12-09T23:05:32.208Z,94642.41
2023-12-09T23:07:59.553Z,94635.94
2023-12-09T23:10:26.670Z,94626.88
2023-12-09T23:12:53.772Z,94631.63
2023-12-09T23:15:22.197Z,94623.91
2023-12-09T23:17:49.426Z,94626.88
2023-12-09T23:20:17.073Z,94630.63
2023-12-09T23:22:44.333Z,94626.38
2023-12-09T23:25:11.367Z,94618.41
2023-12-09T23:27:38.490Z,94617.88
2023-12-09T23:30:06.269Z,94616.34
2023-12-09T23:32:33.653Z,94613.97
2023-12-09T23:35:00.813Z,94605.72
2023-12-09T23:37:27.826Z,94609.44
2023-12-09T23:39:54.864Z,94610.50
2023-12-09T23:42:21.992Z,94606.78
2023-12-09T23:44:49.115Z,94614.00
2023-12-09T23:47:16.186Z,94607.88
2023-12-09T23:49:43.484Z,94602.56
2023-12-09T23:52:10.594Z,94604.66
2023-12-09T23:54:38.818Z,94590.84
2023-12-09T23:57:05.928Z,94582.00
2023-12-09T23:59:33.233Z,94570.56
